createdAt,value
2018-07-11T00:02:11.879Z,8.77
2018-07-11T00:04:40.510Z,7.90
2018-07-11T00:07:08.842Z,11.70
2018-07-11T00:09:37.035Z,7.70
2018-07-11T00:12:05.272Z,9.27
2018-07-11T00:14:33.530Z,8.23
2018-07-11T00:17:10.811Z,11.47
2018-07-11T00:19:39.119Z,8.10
2018-07-11T00:22:24.747Z,7.93
2018-07-11T00:24:52.974Z,15.60
2018-07-11T00:27:21.189Z,8.87
2018-07-11T00:29:49.406Z,10.30
2018-07-11T00:32:17.649Z,7.53
2018-07-11T00:34:45.888Z,11.10
2018-07-11T00:37:14.209Z,10.70
2018-07-11T00:39:42.394Z,13.00
2018-07-11T00:42:10.631Z,10.27
2018-07-11T00:44:38.858Z,14.60
2018-07-11T00:47:07.176Z,9.77
2018-07-11T00:49:35.404Z,9.20
2018-07-11T00:52:03.708Z,13.17
2018-07-11T00:54:31.952Z,8.27
2018-07-11T00:57:01.011Z,8.93
2018-07-11T00:59:32.052Z,17.50
2018-07-11T01:02:04.170Z,9.20
2018-07-11T01:04:32.570Z,15.03
2018-07-11T01:07:02.580Z,10.33
2018-07-11T01:09:32.715Z,8.53
2018-07-11T01:12:00.939Z,8.63
2018-07-11T01:14:29.173Z,14.53
2018-07-11T01:16:57.447Z,8.70
2018-07-11T01:19:25.659Z,9.00
2018-07-11T01:22:01.713Z,9.53
2018-07-11T01:24:31.079Z,9.30
2018-07-11T01:27:00.235Z,11.60
2018-07-11T01:29:28.447Z,13.33
2018-07-11T01:31:56.667Z,10.07
2018-07-11T01:34:24.978Z,12.33
2018-07-11T01:36:53.165Z,13.57
2018-07-11T01:39:21.393Z,11.67
2018-07-11T01:41:49.622Z,11.83
2018-07-11T01:44:17.858Z,11.17
2018-07-11T01:46:49.785Z,12.10
2018-07-11T01:49:18.048Z,9.53
2018-07-11T01:51:58.198Z,16.73
2018-07-11T01:54:27.290Z,12.50
2018-07-11T01:56:55.554Z,14.73
2018-07-11T01:59:26.431Z,13.70
2018-07-11T02:01:54.919Z,11.73
2018-07-11T02:04:23.210Z,18.03
2018-07-11T02:06:51.544Z,18.03
2018-07-11T02:09:19.770Z,10.93
2018-07-11T02:11:48.031Z,11.27
2018-07-11T02:14:16.299Z,10.97
2018-07-11T02:16:44.734Z,18.93
2018-07-11T02:19:12.974Z,13.80
2018-07-11T02:21:41.574Z,11.60
2018-07-11T02:24:09.797Z,14.87
2018-07-11T02:26:38.047Z,20.73
2018-07-11T02:29:06.307Z,14.17
2018-07-11T02:31:34.552Z,17.63
2018-07-11T02:34:02.851Z,12.03
2018-07-11T02:36:31.115Z,16.37
2018-07-11T02:38:59.353Z,15.10
2018-07-11T02:41:27.558Z,16.87
2018-07-11T02:43:55.792Z,14.97
2018-07-11T02:46:29.273Z,17.57
2018-07-11T02:48:57.751Z,12.93
2018-07-11T02:51:25.971Z,15.90
2018-07-11T02:53:54.283Z,17.37
2018-07-11T02:56:22.473Z,14.60
2018-07-11T02:58:50.756Z,14.60
2018-07-11T03:01:19.063Z,14.40
2018-07-11T03:03:47.288Z,12.80
2018-07-11T03:06:15.529Z,27.83
2018-07-11T03:08:43.755Z,17.17
2018-07-11T03:11:11.971Z,17.23
2018-07-11T03:13:40.226Z,15.77
2018-07-11T03:16:08.438Z,18.87
2018-07-11T03:18:36.644Z,12.43
2018-07-11T03:21:04.938Z,13.60
2018-07-11T03:23:33.339Z,11.00
2018-07-11T03:26:01.554Z,14.63
2018-07-11T03:28:29.810Z,14.57
2018-07-11T03:30:58.044Z,24.87
2018-07-11T03:33:26.255Z,19.90
2018-07-11T03:35:54.499Z,18.83
2018-07-11T03:38:22.711Z,15.97
2018-07-11T03:40:50.919Z,22.23
2018-07-11T03:43:19.166Z,16.33
2018-07-11T03:45:47.391Z,15.83
2018-07-11T03:48:15.614Z,22.00
2018-07-11T03:50:43.834Z,19.80
2018-07-11T03:53:13.078Z,22.83
2018-07-11T03:55:41.383Z,17.93
2018-07-11T03:58:09.583Z,20.23
2018-07-11T04:00:37.866Z,20.07
2018-07-11T04:03:06.158Z,16.73
2018-07-11T04:05:34.431Z,17.63
2018-07-11T04:08:02.669Z,20.27
2018-07-11T04:10:33.743Z,20.27
2018-07-11T04:13:02.555Z,27.17
2018-07-11T04:15:30.814Z,17.93
2018-07-11T04:17:59.014Z,21.00
2018-07-11T04:20:27.231Z,14.50
2018-07-11T04:22:55.465Z,21.80
2018-07-11T04:25:23.759Z,17.00
2018-07-11T04:27:52.026Z,20.83
2018-07-11T04:30:20.333Z,17.70
2018-07-11T04:32:48.815Z,19.57
2018-07-11T04:35:17.362Z,17.67
2018-07-11T04:37:45.632Z,31.40
2018-07-11T04:40:13.890Z,17.03
2018-07-11T04:42:42.141Z,14.20
2018-07-11T04:45:10.438Z,15.40
2018-07-11T04:47:38.735Z,19.53
2018-07-11T04:50:07.032Z,22.80
2018-07-11T04:52:35.303Z,18.83
2018-07-11T04:55:03.520Z,16.30
2018-07-11T04:57:31.768Z,22.17
2018-07-11T04:59:59.961Z,16.60
2018-07-11T05:02:28.166Z,19.73
2018-07-11T05:04:56.409Z,19.10
2018-07-11T05:07:24.603Z,20.60
2018-07-11T05:09:52.851Z,23.73
2018-07-11T05:12:21.106Z,26.03
2018-07-11T05:14:49.311Z,25.13
2018-07-11T05:17:17.535Z,23.77
2018-07-11T05:19:45.778Z,25.60
2018-07-11T05:22:13.962Z,24.87
2018-07-11T05:24:42.184Z,21.53
2018-07-11T05:27:10.420Z,28.97
2018-07-11T05:29:38.627Z,27.93
2018-07-11T05:32:06.861Z,29.17
2018-07-11T05:34:35.075Z,27.80
2018-07-11T05:37:03.269Z,27.37
2018-07-11T05:39:31.463Z,28.80
2018-07-11T05:41:59.671Z,33.70
2018-07-11T05:44:27.878Z,30.67
2018-07-11T05:47:01.482Z,24.63
2018-07-11T05:49:30.012Z,21.57
2018-07-11T05:51:58.351Z,29.40
2018-07-11T05:54:26.591Z,22.30
2018-07-11T05:56:54.939Z,23.43
2018-07-11T05:59:23.377Z,26.37
2018-07-11T06:01:51.725Z,26.77
2018-07-11T06:04:20.216Z,27.97
2018-07-11T06:06:48.672Z,29.23
2018-07-11T06:09:16.928Z,20.60
2018-07-11T06:11:45.139Z,27.93
2018-07-11T06:14:13.371Z,21.10
2018-07-11T06:16:41.628Z,21.70
2018-07-11T06:19:09.859Z,17.53
2018-07-11T06:21:38.115Z,14.30
2018-07-11T06:24:06.669Z,18.50
2018-07-11T06:26:34.922Z,30.13
2018-07-11T06:29:03.215Z,24.87
2018-07-11T06:31:31.421Z,20.03
2018-07-11T06:33:59.699Z,32.13
2018-07-11T06:36:27.960Z,39.77
2018-07-11T06:38:56.237Z,25.97
2018-07-11T06:41:24.536Z,27.57
2018-07-11T06:43:52.903Z,23.63
2018-07-11T06:46:21.259Z,22.30
2018-07-11T06:48:49.648Z,21.80
2018-07-11T06:51:17.934Z,19.77
2018-07-11T06:53:46.139Z,25.77
2018-07-11T06:56:14.396Z,22.33
2018-07-11T06:58:42.694Z,19.20
2018-07-11T07:01:10.965Z,28.77
2018-07-11T07:03:39.566Z,32.23
2018-07-11T07:06:07.778Z,33.97
2018-07-11T07:08:35.998Z,21.63
2018-07-11T07:11:04.211Z,21.30
2018-07-11T07:13:32.422Z,19.00
2018-07-11T07:16:00.633Z,20.57
2018-07-11T07:18:29.046Z,25.90
2018-07-11T07:20:57.233Z,28.30
2018-07-11T07:23:25.409Z,23.20
2018-07-11T07:25:53.602Z,20.43
2018-07-11T07:28:21.794Z,18.20
2018-07-11T07:30:49.999Z,20.83
2018-07-11T07:33:18.206Z,19.63
2018-07-11T07:35:46.390Z,24.80
2018-07-11T07:38:14.577Z,16.30
2018-07-11T07:40:42.770Z,16.93
2018-07-11T07:43:10.971Z,20.13
2018-07-11T07:45:39.849Z,21.73
2018-07-11T07:48:08.043Z,23.80
2018-07-11T07:50:36.257Z,20.50
2018-07-11T07:53:04.523Z,20.43
2018-07-11T07:55:32.792Z,21.67
2018-07-11T07:58:01.018Z,21.67
2018-07-11T08:00:29.229Z,23.13
2018-07-11T08:02:57.898Z,25.97
2018-07-11T08:05:26.126Z,29.50
2018-07-11T08:07:54.340Z,24.43
2018-07-11T08:10:22.601Z,19.73
2018-07-11T08:12:50.835Z,28.57
2018-07-11T08:15:19.033Z,16.60
2018-07-11T08:17:47.229Z,21.37
2018-07-11T08:20:15.499Z,24.80
2018-07-11T08:23:21.747Z,20.43
2018-07-11T08:26:02.265Z,21.17
2018-07-11T08:30:48.909Z,23.67
2018-07-11T08:33:27.717Z,19.20
2018-07-11T08:37:04.832Z,21.80
2018-07-11T08:39:44.394Z,19.93
2018-07-11T08:42:23.270Z,20.80
2018-07-11T08:49:09.982Z,17.80
2018-07-11T08:51:49.091Z,14.43
2018-07-11T08:56:48.319Z,22.33
2018-07-11T08:59:32.581Z,15.07
2018-07-11T09:05:21.822Z,11.97
2018-07-11T09:09:07.418Z,15.63
2018-07-11T09:11:46.766Z,17.53
2018-07-11T09:14:27.938Z,21.60
2018-07-11T09:17:19.650Z,17.80
2018-07-11T09:22:07.181Z,18.57
2018-07-11T09:24:45.357Z,18.93
2018-07-11T09:27:13.777Z,14.57
2018-07-11T09:29:42.957Z,16.00
2018-07-11T09:32:11.864Z,18.93
2018-07-11T09:34:40.174Z,20.07
2018-07-11T09:37:08.646Z,18.97
2018-07-11T09:39:37.051Z,14.93
2018-07-11T09:42:05.469Z,14.50
2018-07-11T09:44:33.904Z,13.27
2018-07-11T09:47:06.288Z,18.23
2018-07-11T09:49:35.522Z,19.93
2018-07-11T09:52:03.703Z,14.13
2018-07-11T09:54:32.932Z,16.80
2018-07-11T09:57:01.284Z,14.30
2018-07-11T09:59:29.552Z,15.23
2018-07-11T10:01:57.962Z,16.73
2018-07-11T10:04:27.033Z,17.73
2018-07-11T10:06:55.274Z,14.03
2018-07-11T10:09:23.504Z,14.40
2018-07-11T10:11:52.082Z,13.87
2018-07-11T10:14:20.464Z,12.70
2018-07-11T10:16:48.691Z,14.67
2018-07-11T10:19:16.918Z,16.73
2018-07-11T10:21:45.245Z,13.77
2018-07-11T10:24:13.393Z,14.70
2018-07-11T10:26:41.603Z,17.10
2018-07-11T10:29:09.808Z,14.60
2018-07-11T10:31:38.004Z,14.83
2018-07-11T10:34:06.261Z,14.23
2018-07-11T10:36:34.562Z,19.83
2018-07-11T10:39:02.820Z,15.10
2018-07-11T10:41:31.006Z,12.57
2018-07-11T10:43:59.436Z,13.67
2018-07-11T10:46:27.693Z,14.53
2018-07-11T10:48:55.899Z,16.63
2018-07-11T10:51:24.109Z,11.33
2018-07-11T10:53:52.352Z,13.50
2018-07-11T10:56:20.542Z,11.50
2018-07-11T10:58:48.817Z,13.57
2018-07-11T11:01:18.000Z,12.80
2018-07-11T11:03:46.603Z,11.70
2018-07-11T11:06:14.830Z,14.90
2018-07-11T11:08:43.043Z,9.77
2018-07-11T11:11:12.141Z,13.43
2018-07-11T11:13:40.373Z,14.17
2018-07-11T11:16:08.634Z,15.90
2018-07-11T11:18:36.830Z,12.80
2018-07-11T11:21:05.113Z,16.83
2018-07-11T11:23:33.346Z,22.10
2018-07-11T11:26:01.561Z,12.70
2018-07-11T11:28:33.723Z,18.70
2018-07-11T11:31:01.934Z,13.77
2018-07-11T11:33:30.175Z,12.43
2018-07-11T11:35:58.391Z,17.20
2018-07-11T11:38:26.810Z,11.23
2018-07-11T11:40:55.054Z,15.37
2018-07-11T11:43:23.271Z,8.83
2018-07-11T11:45:51.493Z,13.63
2018-07-11T11:48:19.705Z,11.87
2018-07-11T11:50:47.938Z,11.47
2018-07-11T11:53:16.157Z,10.80
2018-07-11T11:55:44.382Z,11.47
2018-07-11T11:58:12.619Z,16.60
2018-07-11T12:00:40.846Z,15.77
2018-07-11T12:03:09.077Z,12.37
2018-07-11T12:05:37.286Z,8.13
2018-07-11T12:08:05.502Z,12.40
2018-07-11T12:10:33.697Z,10.40
2018-07-11T12:13:01.900Z,13.60
2018-07-11T12:15:30.118Z,14.33
2018-07-11T12:17:58.308Z,10.03
2018-07-11T12:20:26.581Z,10.10
2018-07-11T12:22:54.825Z,10.03
2018-07-11T12:25:23.088Z,9.87
2018-07-11T12:27:51.341Z,10.73
2018-07-11T12:30:19.538Z,17.17
2018-07-11T12:32:47.759Z,8.03
2018-07-11T12:35:15.987Z,15.43
2018-07-11T12:37:44.875Z,8.00
2018-07-11T12:40:13.172Z,8.23
2018-07-11T12:42:41.406Z,6.70
2018-07-11T12:45:09.603Z,8.60
2018-07-11T12:47:43.262Z,7.53
2018-07-11T12:50:11.473Z,8.57
2018-07-11T12:52:39.706Z,8.00
2018-07-11T12:55:07.937Z,8.83
2018-07-11T12:57:36.270Z,9.67
2018-07-11T13:00:04.512Z,8.27
2018-07-11T13:02:33.717Z,8.60
2018-07-11T13:05:02.222Z,9.70
2018-07-11T13:07:31.111Z,8.57
2018-07-11T13:09:59.585Z,9.93
2018-07-11T13:12:27.817Z,9.17
2018-07-11T13:14:56.050Z,17.23
2018-07-11T13:17:24.284Z,14.03
2018-07-11T13:19:52.494Z,10.87
2018-07-11T13:22:20.714Z,13.93
2018-07-11T13:24:48.935Z,8.70
2018-07-11T13:27:17.144Z,8.53
2018-07-11T13:29:45.377Z,13.20
2018-07-11T13:32:14.404Z,16.80
2018-07-11T13:34:42.613Z,13.10
2018-07-11T13:37:10.879Z,8.00
2018-07-11T13:39:39.098Z,13.27
2018-07-11T13:42:07.321Z,8.67
2018-07-11T13:44:35.533Z,9.23
2018-07-11T13:47:07.962Z,21.90
2018-07-11T13:49:36.170Z,9.27
2018-07-11T13:52:05.066Z,11.20
2018-07-11T13:54:33.282Z,8.03
2018-07-11T13:57:01.543Z,8.73
2018-07-11T13:59:29.800Z,9.67
2018-07-11T14:01:58.086Z,12.37
2018-07-11T14:04:26.306Z,9.90
2018-07-11T14:06:54.560Z,11.40
2018-07-11T14:09:22.906Z,10.73
2018-07-11T14:11:51.171Z,10.60
2018-07-11T14:14:19.429Z,10.47
2018-07-11T14:16:48.059Z,9.37
2018-07-11T14:19:16.338Z,10.27
2018-07-11T14:21:44.573Z,7.77
2018-07-11T14:24:13.799Z,8.40
2018-07-11T14:26:41.994Z,11.70
2018-07-11T14:29:10.231Z,9.93
2018-07-11T14:31:38.501Z,8.00
2018-07-11T14:34:08.401Z,9.43
2018-07-11T14:36:36.950Z,10.37
2018-07-11T14:39:06.626Z,8.80
2018-07-11T14:50:13.064Z,10.80
2018-07-11T14:52:41.332Z,9.90
2018-07-11T14:55:09.602Z,8.83
2018-07-11T14:57:38.890Z,7.87
